Airfield :
LOGIN :

Register | Disclaimer

   EN    FR    IT 

 










Legend :    VFR   Marginal VFR   IFR   Intensive IFR   Very Intensive IFR
Visi :
Ceiling :
>= 8 km
>= 3000ft
5 to 8 km
1000 to 3000 ft
1500m to 5 km
500 to 1000 ft
800 to 1500m
200 to 500 ft
< 800m
< 200 ft
Symbols :   Thunderstorms  Fog  Heavy snow  Heavy precipitations  Wind > 20 kt
SIGMETs :     Misc.  Thunderstorms  Icing  Turbulence  Mountain Waves  Volcanic Ashes







- Airport Elevation : 72 ft
- IATA code : UDE


EHVK - Volkel Airbase

CURRENT METAR :
  • 192025Z AUTO 28003KT 9000 BR NCD 11/11 Q1020 BLU

EXPIRED METARs :
  • 192011Z AUTO 28003KT 6000 BR NCD 11/10 Q1020 WHT
  • 191957Z AUTO 28004KT 8000 BR FEW140 11/11 Q1020 BLU
  • 191955Z AUTO 27003KT 7000 BR NCD 11/11 Q1020 WHT
  • 191944Z AUTO 26004KT 5000 BR NCD 11/11 Q1020 WHT
  • 191925Z AUTO 26003KT 2900 R24R/P3000N BR NCD 11/10 Q1020 YLO
  • 191903Z AUTO 25003KT 3400 R24R/P3000N BR FEW067 11/11 Q1020 YLO
  • 191911Z AUTO 25004KT 4500 BR FEW067 11/11 Q1020 GRN
  • 191855Z AUTO 25003KT 4400 BR FEW067 12/11 Q1020 GRN
  • 191825Z AUTO 23004KT 7000 BR OVC068 12/11 Q1020 WHT
  • 191818Z AUTO 23004KT 8000 BR OVC067 12/11 Q1019 BLU
  • 191755Z AUTO 24002KT 7000 BR SCT059 OVC070 12/12 Q1019 WHT
  • 191737Z AUTO 26003KT 7000 BR OVC063 12/11 Q1019 WHT
  • 191725Z AUTO 26002KT 9000 BR SCT063 BKN260 12/11 Q1019 BLU

TAF TAF EHVK
Valid from the 19 at 17:00 until the 20 at 05:00 UTC


191650Z 1917/2005 26004KT 9999 SCT025
TEMPO 1917/1920 FEW020CB BKN025
PROB30 2002/2005 3000 BR
No reported NOTAMs for that airfield.



MET'MAP, your aeronautical weather chart ! - Copyright ORBIFLY December 2007 - Disclaimer

ORBIFLY MET'MAP TEAM :

Programming & Development : Alexandra Zaïnal
Concept & Development : Baudouin d'Aumeries
Co-Development & Prog : Marc-Olivier Méhu
Technical & hardware support : Manuel Goepfert

Contact : metmap@orbifly.com




SOURCES & CREDITS :

   NOAA